Time;durP1;ratioP1;P1;durP2;ratioP2;P2;SDS_P1;SDS_P2;PMS_P1;PMS_P2;Temp;Humidity;BMP_temperature;BMP_pressure;BME280_temperature;BME280_humidity;BME280_pressure;Samples;Min_cycle;Max_cycle;Signal;HPM_P1;HPM_P2
2024/01/07 00:00:14;;;;;;;1.00;0.88;;;21.20;75.70;;;;;;5004963;28;20660;-68
2024/01/07 00:02:44;;;;;;;23.57;1.43;;;21.20;75.80;;;;;;5007297;28;20204;-68
2024/01/07 00:05:19;;;;;;;2.05;1.00;;;21.20;75.80;;;;;;5002514;28;20460;-68
2024/01/07 00:07:48;;;;;;;1.50;1.20;;;21.20;75.90;;;;;;5009955;28;20290;-68
2024/01/07 00:10:19;;;;;;;0.97;0.83;;;21.10;75.80;;;;;;5007097;28;21341;-68
2024/01/07 00:12:45;;;;;;;1.33;0.90;;;21.10;75.70;;;;;;5005763;28;20472;-69
2024/01/07 00:15:12;;;;;;;1.10;0.93;;;21.10;75.70;;;;;;5006919;28;20478;-68
2024/01/07 00:17:45;;;;;;;6.75;1.10;;;21.10;75.70;;;;;;5006464;28;20714;-68
2024/01/07 00:20:28;;;;;;;1.20;0.90;;;21.10;75.70;;;;;;5011534;28;20246;-68
2024/01/07 00:22:56;;;;;;;1.63;0.93;;;21.10;75.80;;;;;;5007422;28;20684;-68
2024/01/07 00:25:31;;;;;;;1.10;0.70;;;21.10;75.80;;;;;;5005316;28;20465;-68
2024/01/07 00:28:01;;;;;;;1.10;0.90;;;21.10;75.80;;;;;;5002234;28;20340;-68
2024/01/07 00:30:29;;;;;;;1.08;0.93;;;21.10;75.80;;;;;;5007403;28;20204;-68
2024/01/07 00:32:58;;;;;;;1.10;1.00;;;21.10;75.80;;;;;;5008078;28;20203;-68
2024/01/07 00:35:25;;;;;;;1.08;0.80;;;21.10;75.80;;;;;;5006263;28;20199;-68
2024/01/07 00:38:04;;;;;;;1.10;0.80;;;21.10;75.80;;;;;;5005542;28;20222;-68
2024/01/07 00:40:34;;;;;;;1.00;0.80;;;21.10;75.80;;;;;;5005162;28;20200;-69
2024/01/07 00:43:05;;;;;;;1.50;0.93;;;21.00;75.60;;;;;;4998859;28;20458;-68
2024/01/07 00:45:34;;;;;;;1.20;1.10;;;21.00;75.70;;;;;;4999029;28;20275;-68
2024/01/07 00:48:05;;;;;;;0.90;0.80;;;21.00;75.70;;;;;;5005896;28;20203;-68
2024/01/07 00:50:39;;;;;;;1.20;0.90;;;21.00;75.70;;;;;;5002777;28;20200;-68
2024/01/07 00:53:10;;;;;;;1.20;1.10;;;21.00;75.70;;;;;;5008393;28;20454;-68
2024/01/07 00:55:44;;;;;;;1.10;0.90;;;21.00;75.70;;;;;;5011614;28;20207;-68
2024/01/07 00:58:14;;;;;;;1.10;0.90;;;21.00;75.80;;;;;;5004972;28;20220;-68
2024/01/07 01:00:53;;;;;;;1.70;0.95;;;21.00;75.70;;;;;;4998694;28;20202;-69
2024/01/07 01:03:24;;;;;;;1.05;0.90;;;21.00;75.70;;;;;;5003146;28;20672;-68
2024/01/07 01:05:51;;;;;;;1.63;1.00;;;21.00;75.70;;;;;;5004478;28;20683;-69
2024/01/07 01:08:29;;;;;;;;;;;;;;;;;;;;;
2024/01/07 01:11:11;;;;;;;;;;;;;;;;;;;;;
2024/01/07 01:13:40;;;;;;;1.00;0.82;;;21.00;75.80;;;;;;5007105;28;20446;-68
2024/01/07 01:16:07;;;;;;;1.25;1.00;;;21.00;75.80;;;;;;5004203;28;20211;-68
2024/01/07 01:18:45;;;;;;;1.10;0.88;;;21.00;75.70;;;;;;5008405;28;20222;-68
2024/01/07 01:21:18;;;;;;;1.30;0.93;;;21.00;75.80;;;;;;5006171;28;20659;-68
2024/01/07 01:23:50;;;;;;;1.25;0.95;;;21.00;75.80;;;;;;5005478;28;20191;-69
2024/01/07 01:26:20;;;;;;;1.30;1.20;;;21.00;75.80;;;;;;5003540;28;20208;-68
2024/01/07 01:28:51;;;;;;;1.33;0.95;;;20.90;75.70;;;;;;5009318;28;20213;-68
2024/01/07 01:31:29;;;;;;;1.63;1.10;;;20.90;75.70;;;;;;4976560;28;20218;-68
2024/01/07 01:36:50;;;;;;;1.20;1.00;;;20.90;75.80;;;;;;4772278;28;20511;-69
2024/01/07 01:39:19;;;;;;;1.60;1.13;;;20.90;75.70;;;;;;4761955;28;21156;-69
2024/01/07 01:41:48;;;;;;;1.00;0.90;;;20.90;75.70;;;;;;4755761;28;20490;-68
2024/01/07 01:44:28;;;;;;;1.20;1.03;;;20.90;75.70;;;;;;4779029;28;21240;-69
2024/01/07 01:49:51;;;;;;;1.10;0.87;;;20.90;75.90;;;;;;4745079;28;21502;-69
2024/01/07 01:55:12;;;;;;;1.40;1.00;;;20.90;75.70;;;;;;4745704;28;20453;-69
2024/01/07 01:57:45;;;;;;;0.97;0.80;;;20.90;75.80;;;;;;4780064;28;20591;-69
2024/01/07 02:00:25;;;;;;;1.00;0.90;;;20.90;75.80;;;;;;4710137;28;21241;-69
2024/01/07 02:02:57;;;;;;;1.30;1.10;;;20.90;75.80;;;;;;4715255;28;20467;-69
2024/01/07 02:05:27;;;;;;;1.37;1.07;;;20.90;75.70;;;;;;4729243;28;20531;-67
2024/01/07 02:08:10;;;;;;;1.13;0.90;;;20.90;75.90;;;;;;4724782;28;20461;-70
2024/01/07 02:10:39;;;;;;;1.10;1.00;;;20.90;75.80;;;;;;4821698;28;20460;-70
2024/01/07 02:13:09;;;;;;;2.30;0.80;;;20.90;75.70;;;;;;4820154;28;21424;-68
2024/01/07 02:15:43;;;;;;;1.10;0.90;;;20.90;75.70;;;;;;4822671;28;21029;-68
2024/01/07 02:18:23;;;;;;;1.20;1.10;;;20.90;76.60;;;;;;4733567;28;20879;-68
2024/01/07 02:21:05;;;;;;;1.25;1.02;;;20.90;75.90;;;;;;4751678;28;20568;-68
2024/01/07 02:23:41;;;;;;;3.40;1.10;;;20.90;75.80;;;;;;4708213;28;21011;-63
2024/01/07 02:26:16;;;;;;;1.40;1.20;;;20.90;76.10;;;;;;4754902;28;20988;-61
2024/01/07 02:28:49;;;;;;;2.65;0.90;;;20.90;76.50;;;;;;4780762;28;20465;-63
2024/01/07 02:31:19;;;;;;;1.20;0.83;;;20.90;75.70;;;;;;4792260;28;20831;-63
2024/01/07 02:33:48;;;;;;;1.60;1.50;;;20.90;76.50;;;;;;4791579;28;20810;-64
2024/01/07 02:36:20;;;;;;;1.20;0.80;;;20.90;75.70;;;;;;4810543;28;20465;-63
2024/01/07 02:38:48;;;;;;;1.27;1.00;;;20.90;75.80;;;;;;4805739;28;20529;-62
2024/01/07 02:41:32;;;;;;;1.47;1.10;;;20.90;75.70;;;;;;4823431;28;20647;-61
2024/01/07 02:44:05;;;;;;;1.30;1.10;;;20.90;75.70;;;;;;4811139;28;20466;-63
2024/01/07 02:46:42;;;;;;;;;;;;;;;;;;;;;
2024/01/07 02:49:10;;;;;;;1.40;1.00;;;20.90;75.90;;;;;;4837179;28;20817;-63
2024/01/07 02:51:44;;;;;;;1.00;0.90;;;20.90;75.80;;;;;;4829854;28;21221;-63
2024/01/07 02:56:58;;;;;;;1.30;0.90;;;20.90;75.80;;;;;;4844723;28;20459;-60
2024/01/07 02:59:44;;;;;;;1.10;0.83;;;20.90;75.70;;;;;;4858419;28;21740;-62
2024/01/07 03:02:15;;;;;;;1.40;1.10;;;20.80;75.70;;;;;;4854205;28;20462;-62
2024/01/07 03:04:46;;;;;;;1.33;1.10;;;20.90;76.00;;;;;;4857313;28;20703;-63
2024/01/07 03:07:18;;;;;;;1.10;1.00;;;20.80;75.70;;;;;;4852041;28;20207;-63
2024/01/07 03:09:52;;;;;;;1.40;1.20;;;20.80;75.70;;;;;;4854077;28;20833;-63
2024/01/07 03:12:29;;;;;;;1.75;1.00;;;20.80;75.70;;;;;;4840448;28;21204;-61
2024/01/07 03:15:00;;;;;;;1.20;0.90;;;20.80;75.50;;;;;;4840387;28;21096;-64
2024/01/07 03:17:44;;;;;;;1.10;0.80;;;20.80;75.70;;;;;;4843891;28;20466;-63
2024/01/07 03:20:18;;;;;;;1.00;0.80;;;20.80;75.70;;;;;;4843139;28;27408;-63
2024/01/07 03:22:48;;;;;;;1.00;0.90;;;20.90;75.70;;;;;;4848728;28;20904;-64
2024/01/07 03:25:17;;;;;;;1.00;0.90;;;20.80;75.60;;;;;;4852573;28;20791;-64
2024/01/07 03:27:49;;;;;;;1.60;1.17;;;20.80;75.60;;;;;;4853928;28;21015;-63
2024/01/07 03:30:33;;;;;;;1.30;0.95;;;20.80;75.70;;;;;;4851529;28;20588;-63
2024/01/07 03:33:06;;;;;;;1.30;1.20;;;20.80;75.70;;;;;;4846368;28;26716;-63
2024/01/07 03:35:57;;;;;;;1.00;0.90;;;20.80;75.90;;;;;;4859240;28;23656;-63
2024/01/07 03:38:29;;;;;;;1.37;1.13;;;20.80;75.60;;;;;;4839601;28;20483;-63
2024/01/07 03:41:00;;;;;;;1.87;1.10;;;20.80;75.60;;;;;;4797873;28;21051;-63
2024/01/07 03:43:37;;;;;;;1.37;1.13;;;20.80;75.70;;;;;;4797234;28;20858;-62
2024/01/07 03:46:06;;;;;;;1.60;1.00;;;20.80;75.70;;;;;;4794442;28;22574;-63
2024/01/07 03:48:36;;;;;;;1.27;1.03;;;20.80;75.70;;;;;;4813914;28;20476;-63
2024/01/07 03:51:06;;;;;;;1.07;0.97;;;20.80;75.60;;;;;;4794665;28;20799;-64
2024/01/07 03:53:48;;;;;;;1.10;1.00;;;20.80;75.60;;;;;;4796124;28;20467;-63
2024/01/07 03:56:24;;;;;;;1.30;1.00;;;20.80;75.60;;;;;;4798058;28;20592;-63
2024/01/07 03:59:02;;;;;;;1.10;0.90;;;20.80;75.70;;;;;;4788387;28;22896;-63
2024/01/07 04:01:29;;;;;;;1.27;0.90;;;20.80;75.70;;;;;;4791104;28;20462;-60
2024/01/07 04:04:00;;;;;;;1.37;1.10;;;20.80;75.60;;;;;;4792725;28;20466;-63
2024/01/07 04:06:35;;;;;;;1.50;1.17;;;20.80;75.60;;;;;;4801033;28;20453;-63
2024/01/07 04:09:03;;;;;;;1.13;0.90;;;20.80;75.60;;;;;;4796920;28;21208;-63
2024/01/07 04:11:44;;;;;;;1.20;1.00;;;20.80;75.70;;;;;;4801992;28;20862;-62
2024/01/07 04:14:33;;;;;;;1.27;1.10;;;20.80;75.70;;;;;;4801432;28;20650;-63
2024/01/07 04:17:03;;;;;;;1.30;0.88;;;20.70;75.50;;;;;;4999355;28;20477;-61
2024/01/07 04:19:34;;;;;;;1.10;1.00;;;20.80;75.60;;;;;;5004759;28;20220;-58
2024/01/07 04:22:06;;;;;;;1.20;1.10;;;20.80;75.60;;;;;;5007972;28;20196;-61
2024/01/07 04:24:32;;;;;;;1.20;0.90;;;20.80;75.70;;;;;;5000730;28;20460;-62
2024/01/07 04:27:05;;;;;;;1.40;1.20;;;20.80;75.70;;;;;;5000470;28;20676;-62
2024/01/07 04:29:43;;;;;;;1.30;1.10;;;20.80;75.70;;;;;;5007021;28;20207;-61
2024/01/07 04:32:12;;;;;;;1.52;0.95;;;20.80;75.70;;;;;;5003529;28;20195;-62
2024/01/07 04:34:52;;;;;;;1.20;1.00;;;20.80;75.60;;;;;;4999678;28;20200;-60
2024/01/07 04:37:23;;;;;;;1.17;1.05;;;20.80;75.60;;;;;;5000698;28;20808;-62
2024/01/07 04:39:59;;;;;;;1.00;0.80;;;20.80;75.60;;;;;;5000058;28;20217;-59
2024/01/07 04:42:31;;;;;;;1.48;1.20;;;20.80;75.60;;;;;;4999918;28;20192;-62
2024/01/07 04:45:01;;;;;;;2.10;1.30;;;20.80;75.60;;;;;;5002138;28;20199;-62
2024/01/07 04:47:43;;;;;;;1.20;0.95;;;20.70;75.50;;;;;;4970527;28;20210;-63
2024/01/07 04:50:12;;;;;;;1.45;0.90;;;20.80;75.60;;;;;;4988354;28;20202;-63
2024/01/07 04:52:46;;;;;;;1.02;0.85;;;20.80;75.60;;;;;;4985642;28;20319;-61
2024/01/07 04:55:25;;;;;;;1.20;1.00;;;20.80;75.60;;;;;;4986434;28;20292;-63
2024/01/07 04:57:55;;;;;;;1.38;1.10;;;20.70;76.20;;;;;;4989722;28;20767;-63
2024/01/07 05:00:29;;;;;;;1.23;1.10;;;20.80;75.70;;;;;;4988940;28;20215;-61
2024/01/07 05:03:01;;;;;;;1.20;1.10;;;20.70;75.50;;;;;;4986287;28;20667;-60
2024/01/07 05:05:38;;;;;;;1.10;0.90;;;20.80;75.60;;;;;;4987444;28;20196;-60
2024/01/07 05:08:09;;;;;;;1.20;1.10;;;20.70;75.50;;;;;;4987638;28;20749;-63
2024/01/07 05:10:43;;;;;;;1.40;0.95;;;20.70;75.50;;;;;;4988048;28;20203;-62
2024/01/07 05:13:21;;;;;;;1.10;1.00;;;20.70;75.50;;;;;;4989539;28;20204;-63
2024/01/07 05:15:53;;;;;;;1.35;1.05;;;20.70;75.50;;;;;;4986932;28;20207;-60
2024/01/07 05:18:26;;;;;;;1.38;1.02;;;20.70;75.50;;;;;;4991711;28;20255;-62
2024/01/07 05:20:53;;;;;;;1.20;1.05;;;20.70;75.50;;;;;;4986769;28;20329;-62
2024/01/07 05:23:21;;;;;;;1.20;1.00;;;20.70;75.40;;;;;;4987329;28;20190;-61
2024/01/07 05:25:52;;;;;;;1.20;1.02;;;20.70;75.40;;;;;;4988824;28;20290;-63
2024/01/07 05:31:18;;;;;;;1.30;0.95;;;20.70;75.40;;;;;;4987006;28;20226;-62
2024/01/07 05:34:03;;;;;;;1.10;0.90;;;20.70;75.50;;;;;;4994618;28;20338;-62
2024/01/07 05:36:30;;;;;;;1.33;1.10;;;20.70;75.40;;;;;;4992237;28;20196;-60
2024/01/07 05:39:04;;;;;;;1.95;1.10;;;20.70;75.50;;;;;;4993819;28;20234;-61
2024/01/07 05:41:43;;;;;;;1.27;0.98;;;20.70;75.40;;;;;;4989680;28;21051;-62
2024/01/07 05:44:13;;;;;;;1.00;0.90;;;20.70;75.40;;;;;;4994014;28;20700;-62
2024/01/07 05:46:45;;;;;;;1.25;1.00;;;20.70;75.40;;;;;;4990098;28;20605;-60
2024/01/07 05:49:14;;;;;;;1.27;1.13;;;20.70;75.40;;;;;;4992221;28;20203;-62
2024/01/07 05:51:47;;;;;;;1.20;1.10;;;20.70;75.40;;;;;;4983874;28;20199;-61
2024/01/07 05:54:28;;;;;;;1.10;0.85;;;20.70;75.40;;;;;;4991919;28;20773;-62
2024/01/07 05:57:05;;;;;;;1.10;1.00;;;20.70;75.40;;;;;;4986493;28;20199;-61
2024/01/07 05:59:37;;;;;;;1.27;1.00;;;20.70;75.40;;;;;;4988613;28;20829;-62
2024/01/07 06:02:13;;;;;;;1.38;0.90;;;20.70;75.40;;;;;;4991094;28;20770;-60
2024/01/07 06:04:42;;;;;;;1.25;0.90;;;20.70;75.40;;;;;;4996489;28;20292;-60
2024/01/07 06:07:17;;;;;;;1.20;0.93;;;20.70;75.40;;;;;;4994190;28;20225;-60
2024/01/07 06:09:48;;;;;;;1.10;1.00;;;20.70;75.40;;;;;;4991688;28;20205;-63
2024/01/07 06:12:15;;;;;;;1.17;0.90;;;20.70;75.40;;;;;;4993411;28;20200;-61
2024/01/07 06:14:41;;;;;;;1.10;0.90;;;20.70;75.40;;;;;;4990818;28;20681;-58
2024/01/07 06:17:15;;;;;;;1.17;1.00;;;20.70;75.40;;;;;;4991157;28;20463;-62
2024/01/07 06:19:53;;;;;;;1.20;1.00;;;20.70;75.30;;;;;;4993870;28;20230;-57
2024/01/07 06:22:26;;;;;;;1.83;1.25;;;20.70;75.40;;;;;;4993595;28;20195;-61
2024/01/07 06:24:55;;;;;;;1.02;0.93;;;20.70;75.40;;;;;;4993516;28;20215;-61
2024/01/07 06:27:22;;;;;;;1.40;1.10;;;20.70;75.40;;;;;;4995502;28;20686;-60
2024/01/07 06:29:51;;;;;;;1.20;0.90;;;20.70;75.40;;;;;;4988463;28;20203;-59
2024/01/07 06:32:25;;;;;;;1.60;1.50;;;20.70;75.40;;;;;;4994873;28;20199;-60
2024/01/07 06:34:56;;;;;;;1.42;1.13;;;20.70;75.30;;;;;;4992494;28;20195;-60
2024/01/07 06:37:29;;;;;;;1.27;1.05;;;20.70;75.30;;;;;;4995033;28;20249;-62
2024/01/07 06:40:00;;;;;;;1.48;1.20;;;20.70;75.30;;;;;;4993342;28;20211;-63
2024/01/07 06:42:33;;;;;;;1.33;1.10;;;20.70;75.20;;;;;;4992838;28;20764;-63
2024/01/07 06:45:09;;;;;;;1.40;1.00;;;20.70;75.30;;;;;;4992089;28;21273;-62
2024/01/07 06:47:46;;;;;;;1.38;0.98;;;20.70;75.20;;;;;;4991574;28;20202;-63
2024/01/07 06:53:02;;;;;;;1.07;0.97;;;20.70;75.30;;;;;;4968485;28;21066;-63
2024/01/07 06:55:30;;;;;;;1.33;1.00;;;20.70;75.30;;;;;;4991098;28;20882;-58
2024/01/07 06:58:00;;;;;;;1.23;0.95;;;20.70;75.20;;;;;;4985150;28;20978;-63
2024/01/07 07:00:27;;;;;;;1.23;1.13;;;20.70;75.20;;;;;;4988938;28;20341;-62
2024/01/07 07:03:05;;;;;;;1.17;0.90;;;20.70;75.20;;;;;;4988198;28;20196;-58
2024/01/07 07:05:41;;;;;;;1.60;1.20;;;20.70;75.10;;;;;;4988378;28;20713;-62
2024/01/07 07:08:14;;;;;;;1.37;1.20;;;20.70;75.10;;;;;;4990139;28;20206;-63
2024/01/07 07:10:43;;;;;;;1.30;1.10;;;20.70;75.10;;;;;;4988106;28;21039;-60
2024/01/07 07:13:10;;;;;;;1.40;1.30;;;20.70;75.00;;;;;;4991582;28;20453;-63
2024/01/07 07:15:40;;;;;;;1.20;0.90;;;20.60;74.80;;;;;;4989265;28;20207;-62
2024/01/07 07:18:12;;;;;;;1.15;1.05;;;20.60;74.80;;;;;;4990652;28;20195;-62
2024/01/07 07:20:44;;;;;;;1.65;1.10;;;20.70;75.00;;;;;;4985437;28;20757;-63
2024/01/07 07:23:14;;;;;;;1.10;1.00;;;20.60;75.00;;;;;;4988548;28;20223;-62
2024/01/07 07:25:46;;;;;;;1.10;0.90;;;20.70;75.10;;;;;;4988318;28;20199;-59
2024/01/07 07:31:01;;;;;;;1.75;1.10;;;20.70;75.30;;;;;;4983571;28;20215;-60
2024/01/07 07:33:33;;;;;;;1.40;0.90;;;20.70;75.30;;;;;;4991963;28;20207;-58
2024/01/07 07:36:09;;;;;;;1.13;0.90;;;20.70;75.30;;;;;;4989636;28;20340;-61
2024/01/07 07:39:00;;;;;;;1.20;0.90;;;20.70;75.30;;;;;;4988598;28;20702;-62
2024/01/07 07:41:32;;;;;;;1.73;0.88;;;20.70;75.30;;;;;;4991215;28;20419;-59
2024/01/07 07:44:05;;;;;;;1.25;0.90;;;20.70;75.40;;;;;;4986406;28;20206;-59
2024/01/07 07:46:44;;;;;;;;;;;;;;;;;;;;;
2024/01/07 07:49:28;;;;;;;1.20;1.10;;;20.80;75.40;;;;;;4985913;28;20218;-60
2024/01/07 07:51:56;;;;;;;1.70;1.03;;;20.80;75.40;;;;;;4985124;28;20202;-61
2024/01/07 07:54:35;;;;;;;1.27;1.00;;;20.80;75.40;;;;;;4990982;28;20469;-59
2024/01/07 07:57:02;;;;;;;2.83;1.00;;;20.80;75.40;;;;;;4988460;28;20625;-58
2024/01/07 07:59:42;;;;;;;1.30;1.10;;;20.80;75.40;;;;;;4987388;28;20466;-58
2024/01/07 08:02:32;;;;;;;1.40;1.15;;;20.80;75.30;;;;;;4988293;28;20201;-62
2024/01/07 08:05:03;;;;;;;1.05;0.93;;;20.90;75.50;;;;;;4992644;28;20659;-60
2024/01/07 08:07:35;;;;;;;1.20;0.90;;;20.80;75.40;;;;;;4987837;28;20632;-59
2024/01/07 08:10:32;;;;;;;1.08;0.88;;;20.90;75.40;;;;;;4990766;28;20779;-59
2024/01/07 08:13:06;;;;;;;1.10;0.82;;;20.80;75.40;;;;;;4986402;28;20704;-58
2024/01/07 08:15:38;;;;;;;1.48;1.00;;;20.90;75.40;;;;;;4989301;28;20811;-60
2024/01/07 08:18:07;;;;;;;1.08;0.98;;;20.90;75.30;;;;;;4989824;28;20769;-61
2024/01/07 08:20:35;;;;;;;3.67;1.02;;;20.90;76.10;;;;;;4992592;28;20273;-60
2024/01/07 08:23:07;;;;;;;1.30;1.03;;;20.90;75.40;;;;;;4989324;28;20199;-59
2024/01/07 08:25:48;;;;;;;1.30;1.00;;;20.90;75.40;;;;;;4989416;28;20465;-63
2024/01/07 08:28:32;;;;;;;1.23;1.10;;;20.90;75.40;;;;;;4992165;28;20427;-60
2024/01/07 08:31:08;;;;;;;1.38;1.15;;;20.90;75.30;;;;;;4983942;28;20738;-59
2024/01/07 08:33:42;;;;;;;1.48;1.00;;;20.90;75.30;;;;;;4990062;28;20198;-60
2024/01/07 08:36:10;;;;;;;1.55;1.00;;;20.90;75.20;;;;;;4988611;28;20198;-63
2024/01/07 08:38:37;;;;;;;1.25;1.15;;;20.90;75.10;;;;;;4989430;28;20894;-59
2024/01/07 08:41:14;;;;;;;1.37;1.10;;;20.90;75.10;;;;;;4991060;28;20226;-60
2024/01/07 08:43:42;;;;;;;1.52;1.27;;;20.90;75.10;;;;;;4988353;28;20990;-60
2024/01/07 08:46:08;;;;;;;1.20;1.10;;;20.90;75.00;;;;;;4986333;28;20208;-59
2024/01/07 08:48:41;;;;;;;1.48;1.27;;;20.90;75.00;;;;;;4987181;28;20496;-59
2024/01/07 08:51:29;;;;;;;1.30;1.20;;;20.90;75.10;;;;;;4975378;28;21135;-58
2024/01/07 08:54:03;;;;;;;1.02;0.90;;;20.90;75.10;;;;;;4970766;28;20208;-60
2024/01/07 08:56:32;;;;;;;1.10;0.90;;;20.90;75.00;;;;;;4984017;28;20670;-60
2024/01/07 08:59:04;;;;;;;1.17;0.90;;;20.90;75.10;;;;;;4984478;28;20801;-57
2024/01/07 09:01:49;;;;;;;1.30;1.10;;;20.90;75.00;;;;;;4985877;28;21287;-59
2024/01/07 09:04:24;;;;;;;1.38;1.10;;;20.90;75.00;;;;;;4987872;28;20199;-59
2024/01/07 09:06:52;;;;;;;1.33;0.93;;;20.90;75.10;;;;;;5003980;28;22554;-59
2024/01/07 09:09:37;;;;;;;1.25;0.90;;;20.90;75.00;;;;;;5000476;28;20208;-60
2024/01/07 09:12:12;;;;;;;1.23;1.00;;;20.90;75.00;;;;;;5000052;28;20233;-58
2024/01/07 09:14:45;;;;;;;2.25;1.10;;;20.90;74.90;;;;;;5001579;28;20207;-62
2024/01/07 09:17:12;;;;;;;1.70;1.20;;;20.90;75.70;;;;;;5004310;28;20193;-60
2024/01/07 09:19:42;;;;;;;1.20;1.10;;;20.90;75.00;;;;;;5005540;28;20298;-60
2024/01/07 09:22:09;;;;;;;1.05;0.82;;;20.90;74.90;;;;;;5003042;28;20961;-57
2024/01/07 09:24:43;;;;;;;1.50;1.10;;;20.90;74.90;;;;;;5006424;28;20419;-58
2024/01/07 09:27:17;;;;;;;1.23;0.80;;;21.00;75.00;;;;;;5006816;28;20199;-61
2024/01/07 09:29:49;;;;;;;1.10;0.80;;;20.90;74.80;;;;;;5002675;28;20199;-59
2024/01/07 09:32:21;;;;;;;2.20;1.00;;;20.90;74.90;;;;;;5001668;28;20200;-60
2024/01/07 09:34:52;;;;;;;1.40;1.27;;;20.90;74.70;;;;;;5000473;28;20196;-59
2024/01/07 09:37:21;;;;;;;1.30;1.00;;;20.90;74.80;;;;;;5010271;28;20204;-55
2024/01/07 09:40:01;;;;;;;1.10;0.90;;;20.90;74.80;;;;;;5005061;28;20192;-58
2024/01/07 09:42:29;;;;;;;1.10;0.80;;;20.90;74.80;;;;;;5004360;28;20202;-59
2024/01/07 09:44:56;;;;;;;2.95;1.10;;;20.90;74.60;;;;;;5003959;28;20286;-59
2024/01/07 09:47:25;;;;;;;1.10;0.90;;;20.90;74.60;;;;;;5001579;28;20625;-60
2024/01/07 09:49:57;;;;;;;1.20;1.00;;;20.90;74.50;;;;;;5003418;28;20214;-57
2024/01/07 09:52:28;;;;;;;1.27;1.10;;;20.90;74.60;;;;;;5004413;28;20196;-61
2024/01/07 09:55:27;;;;;;;1.52;1.15;;;20.90;74.50;;;;;;5006965;28;20468;-58
2024/01/07 09:57:58;;;;;;;1.60;1.15;;;20.90;74.50;;;;;;5003127;28;20200;-57
2024/01/07 10:00:37;;;;;;;1.10;0.90;;;20.90;74.50;;;;;;5002220;28;20215;-60
2024/01/07 10:03:10;;;;;;;1.27;0.90;;;20.90;74.60;;;;;;5006560;28;20678;-60
2024/01/07 10:05:36;;;;;;;1.30;0.80;;;20.90;74.50;;;;;;5005403;28;20195;-57
2024/01/07 10:08:12;;;;;;;1.58;1.20;;;20.90;74.60;;;;;;5007647;28;20209;-58
2024/01/07 10:10:50;;;;;;;1.30;0.90;;;20.90;74.50;;;;;;5005671;28;20213;-56
2024/01/07 10:13:19;;;;;;;1.00;0.80;;;20.90;74.60;;;;;;5006384;28;20559;-61
2024/01/07 10:15:45;;;;;;;1.10;1.00;;;21.00;74.60;;;;;;5005736;28;20798;-59
2024/01/07 10:18:15;;;;;;;1.60;1.00;;;21.00;74.70;;;;;;5010520;28;20200;-58
2024/01/07 10:20:55;;;;;;;1.40;0.90;;;21.00;74.80;;;;;;5009381;28;20230;-58
2024/01/07 10:23:23;;;;;;;1.23;1.00;;;21.00;74.70;;;;;;5002655;28;20269;-55
2024/01/07 10:26:02;;;;;;;1.20;0.93;;;21.00;74.70;;;;;;5005703;28;20195;-60
2024/01/07 10:28:30;;;;;;;1.00;0.90;;;21.00;74.70;;;;;;5002115;28;20235;-56
2024/01/07 10:31:10;;;;;;;1.00;0.90;;;21.00;74.60;;;;;;5006529;28;20238;-58
2024/01/07 10:33:43;;;;;;;1.35;1.00;;;21.00;74.70;;;;;;5005733;28;20203;-57
2024/01/07 10:36:30;;;;;;;1.15;0.95;;;21.00;74.60;;;;;;5004433;28;20196;-56
2024/01/07 10:39:06;;;;;;;1.20;1.00;;;21.00;74.60;;;;;;4999977;28;20203;-55
2024/01/07 10:41:40;;;;;;;1.10;0.88;;;21.00;74.50;;;;;;4993541;28;20219;-56
2024/01/07 10:44:15;;;;;;;1.23;0.90;;;21.00;74.50;;;;;;4997455;28;20295;-60
2024/01/07 10:46:52;;;;;;;1.10;0.80;;;21.00;74.60;;;;;;4999712;28;20196;-61
2024/01/07 10:49:27;;;;;;;1.20;1.00;;;21.00;74.50;;;;;;4997805;28;20214;-61
2024/01/07 10:52:15;;;;;;;1.00;0.80;;;21.00;74.50;;;;;;4994102;28;20470;-60
2024/01/07 10:54:51;;;;;;;0.95;0.75;;;21.00;74.50;;;;;;4999829;28;20199;-57
2024/01/07 10:57:28;;;;;;;1.40;0.90;;;21.00;74.50;;;;;;5000468;28;20199;-60
2024/01/07 11:00:18;;;;;;;1.00;0.85;;;21.00;74.50;;;;;;4998047;28;20195;-60
2024/01/07 11:02:57;;;;;;;31.75;2.95;;;21.00;74.30;;;;;;5000788;28;20853;-58
2024/01/07 11:05:47;;;;;;;;;;;;;;;;;;;;;
2024/01/07 11:08:26;;;;;;;4.63;1.00;;;21.00;74.70;;;;;;4998077;28;20456;-60
2024/01/07 11:11:00;;;;;;;4.25;1.08;;;20.90;75.40;;;;;;4994180;28;21086;-63
2024/01/07 11:13:44;;;;;;;1.77;1.20;;;21.00;75.30;;;;;;4995936;28;20195;-65
2024/01/07 11:16:19;;;;;;;1.30;1.00;;;21.00;75.50;;;;;;4999611;28;20808;-62
2024/01/07 11:18:53;;;;;;;1.30;1.00;;;21.00;75.80;;;;;;5000759;28;20296;-65
2024/01/07 11:21:39;;;;;;;2.55;1.00;;;21.00;76.30;;;;;;5002626;28;22335;-61
2024/01/07 11:24:09;;;;;;;2.88;0.90;;;21.10;76.50;;;;;;4999402;28;20199;-62
2024/01/07 11:26:38;;;;;;;1.90;0.95;;;21.00;76.40;;;;;;5000668;28;20682;-63
2024/01/07 11:29:13;;;;;;;0.95;0.80;;;21.10;76.70;;;;;;4999141;28;20203;-62
2024/01/07 11:31:51;;;;;;;1.70;0.90;;;21.10;76.70;;;;;;5003584;28;20199;-61
2024/01/07 11:34:43;;;;;;;1.07;0.90;;;21.10;76.70;;;;;;4999112;28;20229;-60
2024/01/07 11:37:14;;;;;;;1.30;1.20;;;21.20;76.90;;;;;;4998504;28;20457;-62
2024/01/07 11:39:44;;;;;;;1.10;0.90;;;21.20;76.80;;;;;;5002116;28;20470;-59
2024/01/07 11:42:15;;;;;;;1.27;1.17;;;21.20;76.80;;;;;;4997918;28;20476;-63
2024/01/07 11:44:49;;;;;;;1.23;1.00;;;21.20;76.90;;;;;;4992688;28;20206;-63
2024/01/07 11:47:16;;;;;;;1.10;0.90;;;21.20;76.80;;;;;;5001139;28;20814;-62
2024/01/07 11:49:44;;;;;;;1.30;0.97;;;21.30;76.80;;;;;;4995242;28;20489;-62
2024/01/07 11:52:11;;;;;;;1.20;1.00;;;21.30;76.70;;;;;;5001681;28;20469;-62
2024/01/07 11:54:41;;;;;;;1.10;0.97;;;21.30;76.80;;;;;;4998914;28;22593;-62
2024/01/07 11:57:32;;;;;;;1.20;1.00;;;21.30;76.70;;;;;;5005656;28;20465;-62
2024/01/07 12:00:13;;;;;;;1.30;0.83;;;21.30;76.70;;;;;;4998981;28;20504;-64
2024/01/07 12:02:49;;;;;;;1.37;0.97;;;21.40;76.80;;;;;;5008233;28;20865;-62
2024/01/07 12:05:31;;;;;;;1.87;0.93;;;21.40;76.70;;;;;;5005451;28;20802;-64
2024/01/07 12:08:09;;;;;;;1.53;0.90;;;21.40;76.70;;;;;;5005598;28;20465;-64
2024/01/07 12:11:01;;;;;;;2.60;1.10;;;21.40;76.70;;;;;;5007591;28;20457;-60
2024/01/07 12:13:33;;;;;;;1.20;0.80;;;21.40;76.50;;;;;;4996011;28;20461;-59
2024/01/07 12:16:03;;;;;;;1.63;1.00;;;21.50;77.40;;;;;;4995381;28;20861;-64
2024/01/07 12:18:44;;;;;;;1.40;1.10;;;21.50;76.50;;;;;;5004750;28;20490;-65
2024/01/07 12:21:23;;;;;;;1.47;1.00;;;21.50;76.50;;;;;;5004840;28;20520;-59
2024/01/07 12:24:00;;;;;;;2.20;1.00;;;21.50;76.50;;;;;;5003102;28;20458;-60
2024/01/07 12:26:33;;;;;;;2.47;0.97;;;21.50;76.40;;;;;;5003566;28;20468;-62
2024/01/07 12:29:10;;;;;;;1.30;0.90;;;21.50;76.20;;;;;;4999963;28;27753;-60
2024/01/07 12:31:46;;;;;;;1.10;0.87;;;21.50;76.20;;;;;;4997452;28;20923;-64
2024/01/07 12:34:24;;;;;;;1.40;0.90;;;21.50;76.30;;;;;;5004702;28;20507;-61
2024/01/07 12:36:54;;;;;;;1.10;0.77;;;21.60;76.40;;;;;;4992437;28;20468;-62
2024/01/07 12:42:10;;;;;;;1.20;0.90;;;21.60;76.20;;;;;;4989570;28;20477;-63
2024/01/07 12:44:54;;;;;;;2.30;0.93;;;21.60;76.20;;;;;;4990346;28;20459;-64
2024/01/07 12:47:36;;;;;;;1.20;1.00;;;21.60;76.70;;;;;;4987868;28;21002;-62
2024/01/07 12:50:16;;;;;;;1.87;1.13;;;21.60;76.30;;;;;;4992301;28;20470;-60
2024/01/07 12:52:54;;;;;;;1.43;1.00;;;21.60;76.10;;;;;;4997932;28;20463;-63
2024/01/07 12:55:23;;;;;;;1.10;0.80;;;21.60;76.10;;;;;;4999347;28;21264;-64
2024/01/07 12:57:49;;;;;;;1.47;1.00;;;21.60;76.00;;;;;;4992806;28;20468;-61
2024/01/07 13:00:26;;;;;;;1.53;1.17;;;21.60;76.10;;;;;;4996947;28;20459;-63
2024/01/07 13:03:06;;;;;;;1.00;0.90;;;21.60;76.00;;;;;;4994519;28;20571;-65
2024/01/07 13:05:49;;;;;;;1.57;1.33;;;21.70;76.10;;;;;;4993374;28;20670;-62
2024/01/07 13:08:25;;;;;;;1.20;0.97;;;21.70;76.00;;;;;;4995145;28;20465;-64
2024/01/07 13:10:52;;;;;;;1.10;0.90;;;21.70;76.00;;;;;;4996236;28;20873;-62
2024/01/07 13:13:21;;;;;;;2.50;1.40;;;21.70;76.00;;;;;;4995724;28;20968;-62
2024/01/07 13:15:54;;;;;;;1.47;1.20;;;21.70;75.90;;;;;;4996460;28;20757;-63
2024/01/07 13:18:29;;;;;;;3.33;1.00;;;21.70;75.90;;;;;;4999793;28;20805;-63
2024/01/07 13:20:59;;;;;;;1.60;1.00;;;21.70;75.90;;;;;;4999471;28;20457;-59
2024/01/07 13:23:38;;;;;;;2.17;1.13;;;21.70;75.60;;;;;;4995842;28;20462;-62
2024/01/07 13:26:09;;;;;;;1.60;1.30;;;21.80;75.80;;;;;;4997818;28;20459;-61
2024/01/07 13:28:39;;;;;;;1.30;1.00;;;21.80;75.80;;;;;;4999069;28;20498;-60
2024/01/07 13:31:12;;;;;;;1.20;1.10;;;21.80;75.90;;;;;;4995747;28;20855;-62
2024/01/07 13:33:44;;;;;;;1.37;1.00;;;21.80;75.80;;;;;;4995632;28;20513;-63
2024/01/07 13:36:20;;;;;;;1.87;0.97;;;21.80;75.50;;;;;;4994727;28;20453;-62
2024/01/07 13:38:51;;;;;;;1.13;0.83;;;21.80;75.70;;;;;;4999196;28;21133;-61
2024/01/07 13:41:19;;;;;;;1.50;1.00;;;21.80;75.70;;;;;;4998528;28;20538;-64
2024/01/07 13:43:50;;;;;;;1.10;1.00;;;21.80;75.60;;;;;;4994898;28;20849;-65
2024/01/07 13:46:19;;;;;;;1.13;1.00;;;21.80;75.50;;;;;;4999003;28;20960;-62
2024/01/07 13:49:09;;;;;;;1.63;1.50;;;21.80;75.50;;;;;;4990835;28;21436;-64